sensor_id;sensor_type;location;lat;lon;timestamp;P1;P2;P0
69123;PMS5003;56232;53.384;-2.732;2023-04-03T00:00:31;10;10;
69123;PMS5003;56232;53.384;-2.732;2023-04-03T00:02:57;10;9;
69123;PMS5003;56232;53.384;-2.732;2023-04-03T00:05:23;12;11;
69123;PMS5003;56232;53.384;-2.732;2023-04-03T00:07:48;11;11;
69123;PMS5003;56232;53.384;-2.732;2023-04-03T00:10:14;15;12;
69123;PMS5003;56232;53.384;-2.732;2023-04-03T00:12:40;10;10;
69123;PMS5003;56232;53.384;-2.732;2023-04-03T00:15:06;10;9;
69123;PMS5003;56232;53.384;-2.732;2023-04-03T00:17:31;9;9;
69123;PMS5003;56232;53.384;-2.732;2023-04-03T00:19:57;11;10;
69123;PMS5003;56232;53.384;-2.732;2023-04-03T00:22:23;9;9;
69123;PMS5003;56232;53.384;-2.732;2023-04-03T00:24:48;8;8;
69123;PMS5003;56232;53.384;-2.732;2023-04-03T00:27:14;10;10;
69123;PMS5003;56232;53.384;-2.732;2023-04-03T00:29:39;17;13;
69123;PMS5003;56232;53.384;-2.732;2023-04-03T00:32:04;10;9;
69123;PMS5003;56232;53.384;-2.732;2023-04-03T00:34:30;9;9;
69123;PMS5003;56232;53.384;-2.732;2023-04-03T00:36:55;11;11;
69123;PMS5003;56232;53.384;-2.732;2023-04-03T00:39:21;10;9;
69123;PMS5003;56232;53.384;-2.732;2023-04-03T00:41:46;8;8;
69123;PMS5003;56232;53.384;-2.732;2023-04-03T00:46:36;13;10;
69123;PMS5003;56232;53.384;-2.732;2023-04-03T00:49:02;9;8;
69123;PMS5003;56232;53.384;-2.732;2023-04-03T00:51:27;13;12;
69123;PMS5003;56232;53.384;-2.732;2023-04-03T00:53:53;9;9;
69123;PMS5003;56232;53.384;-2.732;2023-04-03T00:56:19;13;11;
69123;PMS5003;56232;53.384;-2.732;2023-04-03T00:58:46;10;10;
69123;PMS5003;56232;53.384;-2.732;2023-04-03T01:01:10;10;10;
69123;PMS5003;56232;53.384;-2.732;2023-04-03T01:03:35;12;12;
69123;PMS5003;56232;53.384;-2.732;2023-04-03T01:06:01;12;10;
69123;PMS5003;56232;53.384;-2.732;2023-04-03T01:08:27;9;9;
69123;PMS5003;56232;53.384;-2.732;2023-04-03T01:10:52;9;9;
69123;PMS5003;56232;53.384;-2.732;2023-04-03T01:13:19;8;8;
69123;PMS5003;56232;53.384;-2.732;2023-04-03T01:15:42;9;9;
69123;PMS5003;56232;53.384;-2.732;2023-04-03T01:18:08;12;8;
69123;PMS5003;56232;53.384;-2.732;2023-04-03T01:20:40;9;9;
69123;PMS5003;56232;53.384;-2.732;2023-04-03T01:23:01;10;10;
69123;PMS5003;56232;53.384;-2.732;2023-04-03T01:25:24;9;8;
69123;PMS5003;56232;53.384;-2.732;2023-04-03T01:27:49;10;10;
69123;PMS5003;56232;53.384;-2.732;2023-04-03T01:30:16;12;11;
69123;PMS5003;56232;53.384;-2.732;2023-04-03T01:32:40;12;10;
69123;PMS5003;56232;53.384;-2.732;2023-04-03T01:35:07;12;10;
69123;PMS5003;56232;53.384;-2.732;2023-04-03T01:37:31;12;11;
69123;PMS5003;56232;53.384;-2.732;2023-04-03T01:39:57;13;12;
69123;PMS5003;56232;53.384;-2.732;2023-04-03T01:42:22;13;12;
69123;PMS5003;56232;53.384;-2.732;2023-04-03T01:44:48;12;12;
69123;PMS5003;56232;53.384;-2.732;2023-04-03T01:47:13;9;9;
69123;PMS5003;56232;53.384;-2.732;2023-04-03T01:49:38;12;11;
69123;PMS5003;56232;53.384;-2.732;2023-04-03T01:52:04;8;8;
69123;PMS5003;56232;53.384;-2.732;2023-04-03T01:54:29;10;9;
69123;PMS5003;56232;53.384;-2.732;2023-04-03T01:56:54;9;8;
69123;PMS5003;56232;53.384;-2.732;2023-04-03T01:59:20;9;9;
69123;PMS5003;56232;53.384;-2.732;2023-04-03T02:01:46;15;13;
69123;PMS5003;56232;53.384;-2.732;2023-04-03T02:04:10;11;9;
69123;PMS5003;56232;53.384;-2.732;2023-04-03T02:06:36;11;9;
69123;PMS5003;56232;53.384;-2.732;2023-04-03T02:09:02;12;11;
69123;PMS5003;56232;53.384;-2.732;2023-04-03T02:11:28;8;6;
69123;PMS5003;56232;53.384;-2.732;2023-04-03T02:13:53;9;9;
69123;PMS5003;56232;53.384;-2.732;2023-04-03T02:16:18;8;8;
69123;PMS5003;56232;53.384;-2.732;2023-04-03T02:18:44;9;8;
69123;PMS5003;56232;53.384;-2.732;2023-04-03T02:21:09;9;9;
69123;PMS5003;56232;53.384;-2.732;2023-04-03T02:23:34;8;8;
69123;PMS5003;56232;53.384;-2.732;2023-04-03T02:26:04;11;9;
69123;PMS5003;56232;53.384;-2.732;2023-04-03T02:28:25;7;7;
69123;PMS5003;56232;53.384;-2.732;2023-04-03T02:30:51;10;10;
69123;PMS5003;56232;53.384;-2.732;2023-04-03T02:33:16;12;8;
69123;PMS5003;56232;53.384;-2.732;2023-04-03T02:35:42;9;9;
69123;PMS5003;56232;53.384;-2.732;2023-04-03T02:38:07;11;8;
69123;PMS5003;56232;53.384;-2.732;2023-04-03T02:40:32;12;10;
69123;PMS5003;56232;53.384;-2.732;2023-04-03T02:42:58;11;11;
69123;PMS5003;56232;53.384;-2.732;2023-04-03T02:45:24;13;10;
69123;PMS5003;56232;53.384;-2.732;2023-04-03T02:47:49;10;8;
69123;PMS5003;56232;53.384;-2.732;2023-04-03T02:50:14;10;10;
69123;PMS5003;56232;53.384;-2.732;2023-04-03T02:52:40;10;10;
69123;PMS5003;56232;53.384;-2.732;2023-04-03T02:55:06;10;10;
69123;PMS5003;56232;53.384;-2.732;2023-04-03T02:57:36;8;7;
69123;PMS5003;56232;53.384;-2.732;2023-04-03T02:59:56;12;10;
69123;PMS5003;56232;53.384;-2.732;2023-04-03T03:02:21;10;10;
69123;PMS5003;56232;53.384;-2.732;2023-04-03T03:04:47;8;8;
69123;PMS5003;56232;53.384;-2.732;2023-04-03T03:07:12;11;8;
69123;PMS5003;56232;53.384;-2.732;2023-04-03T03:09:38;11;10;
69123;PMS5003;56232;53.384;-2.732;2023-04-03T03:12:03;8;8;
69123;PMS5003;56232;53.384;-2.732;2023-04-03T03:14:29;11;11;
69123;PMS5003;56232;53.384;-2.732;2023-04-03T03:16:54;10;8;
69123;PMS5003;56232;53.384;-2.732;2023-04-03T03:19:19;7;7;
69123;PMS5003;56232;53.384;-2.732;2023-04-03T03:21:45;10;10;
69123;PMS5003;56232;53.384;-2.732;2023-04-03T03:24:11;12;8;
69123;PMS5003;56232;53.384;-2.732;2023-04-03T03:26:37;10;8;
69123;PMS5003;56232;53.384;-2.732;2023-04-03T03:29:02;8;8;
69123;PMS5003;56232;53.384;-2.732;2023-04-03T03:31:27;10;10;
69123;PMS5003;56232;53.384;-2.732;2023-04-03T03:33:53;8;7;
69123;PMS5003;56232;53.384;-2.732;2023-04-03T03:36:18;11;10;
69123;PMS5003;56232;53.384;-2.732;2023-04-03T03:38:44;10;10;
69123;PMS5003;56232;53.384;-2.732;2023-04-03T03:41:10;11;11;
69123;PMS5003;56232;53.384;-2.732;2023-04-03T03:43:35;10;9;
69123;PMS5003;56232;53.384;-2.732;2023-04-03T03:46:00;10;9;
69123;PMS5003;56232;53.384;-2.732;2023-04-03T03:48:26;11;10;
69123;PMS5003;56232;53.384;-2.732;2023-04-03T03:50:51;11;10;
69123;PMS5003;56232;53.384;-2.732;2023-04-03T03:53:17;12;10;
69123;PMS5003;56232;53.384;-2.732;2023-04-03T03:55:42;10;10;
69123;PMS5003;56232;53.384;-2.732;2023-04-03T03:58:08;9;9;
69123;PMS5003;56232;53.384;-2.732;2023-04-03T04:00:33;12;12;
69123;PMS5003;56232;53.384;-2.732;2023-04-03T04:02:59;13;12;
69123;PMS5003;56232;53.384;-2.732;2023-04-03T04:05:24;10;10;
69123;PMS5003;56232;53.384;-2.732;2023-04-03T04:07:50;10;10;
69123;PMS5003;56232;53.384;-2.732;2023-04-03T04:10:15;9;9;
69123;PMS5003;56232;53.384;-2.732;2023-04-03T04:12:41;10;10;
69123;PMS5003;56232;53.384;-2.732;2023-04-03T04:15:07;9;9;
69123;PMS5003;56232;53.384;-2.732;2023-04-03T04:17:32;9;9;
69123;PMS5003;56232;53.384;-2.732;2023-04-03T04:19:57;7;6;
69123;PMS5003;56232;53.384;-2.732;2023-04-03T04:22:23;9;9;
69123;PMS5003;56232;53.384;-2.732;2023-04-03T04:24:49;9;9;
69123;PMS5003;56232;53.384;-2.732;2023-04-03T04:27:14;6;6;
69123;PMS5003;56232;53.384;-2.732;2023-04-03T04:29:40;6;6;
69123;PMS5003;56232;53.384;-2.732;2023-04-03T04:32:05;11;11;
69123;PMS5003;56232;53.384;-2.732;2023-04-03T04:34:30;9;9;
69123;PMS5003;56232;53.384;-2.732;2023-04-03T04:36:56;7;7;
69123;PMS5003;56232;53.384;-2.732;2023-04-03T04:39:21;6;6;
69123;PMS5003;56232;53.384;-2.732;2023-04-03T04:41:47;9;9;
69123;PMS5003;56232;53.384;-2.732;2023-04-03T04:44:12;9;9;
69123;PMS5003;56232;53.384;-2.732;2023-04-03T04:46:37;7;7;
69123;PMS5003;56232;53.384;-2.732;2023-04-03T04:49:03;10;10;
69123;PMS5003;56232;53.384;-2.732;2023-04-03T04:51:29;11;9;
69123;PMS5003;56232;53.384;-2.732;2023-04-03T04:53:55;10;9;
69123;PMS5003;56232;53.384;-2.732;2023-04-03T04:56:20;9;9;
69123;PMS5003;56232;53.384;-2.732;2023-04-03T04:58:46;6;6;
69123;PMS5003;56232;53.384;-2.732;2023-04-03T05:01:11;11;10;
69123;PMS5003;56232;53.384;-2.732;2023-04-03T05:03:36;10;9;
69123;PMS5003;56232;53.384;-2.732;2023-04-03T05:06:02;6;6;
69123;PMS5003;56232;53.384;-2.732;2023-04-03T05:08:27;13;11;
69123;PMS5003;56232;53.384;-2.732;2023-04-03T05:10:52;13;10;
69123;PMS5003;56232;53.384;-2.732;2023-04-03T05:13:18;12;10;
69123;PMS5003;56232;53.384;-2.732;2023-04-03T05:15:45;10;8;
69123;PMS5003;56232;53.384;-2.732;2023-04-03T05:18:09;9;9;
69123;PMS5003;56232;53.384;-2.732;2023-04-03T05:20:34;11;10;
69123;PMS5003;56232;53.384;-2.732;2023-04-03T05:23:00;10;9;
69123;PMS5003;56232;53.384;-2.732;2023-04-03T05:25:25;14;11;
69123;PMS5003;56232;53.384;-2.732;2023-04-03T05:27:50;9;9;
69123;PMS5003;56232;53.384;-2.732;2023-04-03T05:30:16;10;9;
69123;PMS5003;56232;53.384;-2.732;2023-04-03T05:32:41;10;9;
69123;PMS5003;56232;53.384;-2.732;2023-04-03T05:35:06;13;10;
69123;PMS5003;56232;53.384;-2.732;2023-04-03T05:37:31;9;8;
69123;PMS5003;56232;53.384;-2.732;2023-04-03T05:39:57;11;10;
69123;PMS5003;56232;53.384;-2.732;2023-04-03T05:42:23;9;9;
69123;PMS5003;56232;53.384;-2.732;2023-04-03T05:44:48;10;10;
69123;PMS5003;56232;53.384;-2.732;2023-04-03T05:47:14;10;9;
69123;PMS5003;56232;53.384;-2.732;2023-04-03T05:49:39;9;9;
69123;PMS5003;56232;53.384;-2.732;2023-04-03T05:52:04;14;12;
69123;PMS5003;56232;53.384;-2.732;2023-04-03T05:54:29;10;10;
69123;PMS5003;56232;53.384;-2.732;2023-04-03T05:56:54;9;9;
69123;PMS5003;56232;53.384;-2.732;2023-04-03T05:59:20;10;10;
69123;PMS5003;56232;53.384;-2.732;2023-04-03T06:01:46;11;11;
69123;PMS5003;56232;53.384;-2.732;2023-04-03T06:04:11;10;10;
69123;PMS5003;56232;53.384;-2.732;2023-04-03T06:09:01;11;11;
69123;PMS5003;56232;53.384;-2.732;2023-04-03T06:11:27;12;10;
69123;PMS5003;56232;53.384;-2.732;2023-04-03T06:13:53;10;10;
69123;PMS5003;56232;53.384;-2.732;2023-04-03T06:16:18;9;9;
69123;PMS5003;56232;53.384;-2.732;2023-04-03T06:18:44;10;10;
69123;PMS5003;56232;53.384;-2.732;2023-04-03T06:21:09;9;8;
69123;PMS5003;56232;53.384;-2.732;2023-04-03T06:23:35;10;10;
69123;PMS5003;56232;53.384;-2.732;2023-04-03T06:26:00;12;10;
69123;PMS5003;56232;53.384;-2.732;2023-04-03T06:28:26;11;10;
69123;PMS5003;56232;53.384;-2.732;2023-04-03T06:30:51;10;9;
69123;PMS5003;56232;53.384;-2.732;2023-04-03T06:33:17;11;9;
69123;PMS5003;56232;53.384;-2.732;2023-04-03T06:35:42;11;10;
69123;PMS5003;56232;53.384;-2.732;2023-04-03T06:38:07;11;10;
69123;PMS5003;56232;53.384;-2.732;2023-04-03T06:40:33;9;9;
69123;PMS5003;56232;53.384;-2.732;2023-04-03T06:42:59;13;10;
69123;PMS5003;56232;53.384;-2.732;2023-04-03T06:45:24;12;10;
69123;PMS5003;56232;53.384;-2.732;2023-04-03T06:47:50;10;10;
69123;PMS5003;56232;53.384;-2.732;2023-04-03T06:50:16;13;11;
69123;PMS5003;56232;53.384;-2.732;2023-04-03T06:52:41;10;8;
69123;PMS5003;56232;53.384;-2.732;2023-04-03T06:55:07;8;7;
69123;PMS5003;56232;53.384;-2.732;2023-04-03T06:57:32;10;8;
69123;PMS5003;56232;53.384;-2.732;2023-04-03T06:59:57;13;7;
69123;PMS5003;56232;53.384;-2.732;2023-04-03T07:02:23;9;8;
69123;PMS5003;56232;53.384;-2.732;2023-04-03T07:04:49;6;6;
69123;PMS5003;56232;53.384;-2.732;2023-04-03T07:07:15;8;7;
69123;PMS5003;56232;53.384;-2.732;2023-04-03T07:09:41;7;7;
69123;PMS5003;56232;53.384;-2.732;2023-04-03T07:12:06;7;7;
69123;PMS5003;56232;53.384;-2.732;2023-04-03T07:14:32;7;6;
69123;PMS5003;56232;53.384;-2.732;2023-04-03T07:16:57;7;7;
69123;PMS5003;56232;53.384;-2.732;2023-04-03T07:19:23;6;6;
69123;PMS5003;56232;53.384;-2.732;2023-04-03T07:21:49;7;6;
69123;PMS5003;56232;53.384;-2.732;2023-04-03T07:24:14;7;7;
69123;PMS5003;56232;53.384;-2.732;2023-04-03T07:26:40;9;9;
69123;PMS5003;56232;53.384;-2.732;2023-04-03T07:29:06;5;5;
69123;PMS5003;56232;53.384;-2.732;2023-04-03T07:31:32;6;5;
69123;PMS5003;56232;53.384;-2.732;2023-04-03T07:33:57;7;7;
69123;PMS5003;56232;53.384;-2.732;2023-04-03T07:36:23;5;5;
69123;PMS5003;56232;53.384;-2.732;2023-04-03T07:38:48;4;4;
69123;PMS5003;56232;53.384;-2.732;2023-04-03T07:41:15;5;5;
69123;PMS5003;56232;53.384;-2.732;2023-04-03T07:43:40;8;6;
69123;PMS5003;56232;53.384;-2.732;2023-04-03T07:46:05;6;5;
69123;PMS5003;56232;53.384;-2.732;2023-04-03T07:48:31;5;5;
69123;PMS5003;56232;53.384;-2.732;2023-04-03T07:50:58;6;5;
69123;PMS5003;56232;53.384;-2.732;2023-04-03T07:53:22;5;5;
69123;PMS5003;56232;53.384;-2.732;2023-04-03T07:55:48;4;3;
69123;PMS5003;56232;53.384;-2.732;2023-04-03T07:58:15;4;3;
69123;PMS5003;56232;53.384;-2.732;2023-04-03T08:00:40;7;7;
69123;PMS5003;56232;53.384;-2.732;2023-04-03T08:03:05;8;5;
69123;PMS5003;56232;53.384;-2.732;2023-04-03T08:05:31;1;1;
69123;PMS5003;56232;53.384;-2.732;2023-04-03T08:07:56;4;3;
69123;PMS5003;56232;53.384;-2.732;2023-04-03T08:10:22;5;3;
69123;PMS5003;56232;53.384;-2.732;2023-04-03T08:12:48;3;3;
69123;PMS5003;56232;53.384;-2.732;2023-04-03T08:15:13;4;4;
69123;PMS5003;56232;53.384;-2.732;2023-04-03T08:17:39;5;5;
69123;PMS5003;56232;53.384;-2.732;2023-04-03T08:20:06;5;4;
69123;PMS5003;56232;53.384;-2.732;2023-04-03T08:22:30;6;5;
69123;PMS5003;56232;53.384;-2.732;2023-04-03T08:24:56;5;4;
69123;PMS5003;56232;53.384;-2.732;2023-04-03T08:27:22;5;3;
69123;PMS5003;56232;53.384;-2.732;2023-04-03T08:29:47;5;4;
69123;PMS5003;56232;53.384;-2.732;2023-04-03T08:32:13;6;4;
69123;PMS5003;56232;53.384;-2.732;2023-04-03T08:34:38;6;4;
69123;PMS5003;56232;53.384;-2.732;2023-04-03T08:37:04;4;3;
69123;PMS5003;56232;53.384;-2.732;2023-04-03T08:39:30;4;4;
69123;PMS5003;56232;53.384;-2.732;2023-04-03T08:41:57;4;4;
69123;PMS5003;56232;53.384;-2.732;2023-04-03T08:44:24;4;4;
69123;PMS5003;56232;53.384;-2.732;2023-04-03T08:46:52;5;5;
69123;PMS5003;56232;53.384;-2.732;2023-04-03T08:49:15;4;3;
69123;PMS5003;56232;53.384;-2.732;2023-04-03T08:51:38;4;4;
69123;PMS5003;56232;53.384;-2.732;2023-04-03T08:54:04;4;4;
69123;PMS5003;56232;53.384;-2.732;2023-04-03T08:56:30;5;4;
69123;PMS5003;56232;53.384;-2.732;2023-04-03T08:58:56;5;5;
69123;PMS5003;56232;53.384;-2.732;2023-04-03T09:01:21;4;4;
69123;PMS5003;56232;53.384;-2.732;2023-04-03T09:03:47;6;6;
69123;PMS5003;56232;53.384;-2.732;2023-04-03T09:06:13;4;4;
69123;PMS5003;56232;53.384;-2.732;2023-04-03T09:08:40;5;5;
69123;PMS5003;56232;53.384;-2.732;2023-04-03T09:11:07;6;5;
69123;PMS5003;56232;53.384;-2.732;2023-04-03T09:13:30;5;5;
69123;PMS5003;56232;53.384;-2.732;2023-04-03T09:15:55;5;4;
69123;PMS5003;56232;53.384;-2.732;2023-04-03T09:18:21;5;4;
69123;PMS5003;56232;53.384;-2.732;2023-04-03T09:20:49;4;4;
69123;PMS5003;56232;53.384;-2.732;2023-04-03T09:23:14;5;4;
69123;PMS5003;56232;53.384;-2.732;2023-04-03T09:25:37;3;3;
69123;PMS5003;56232;53.384;-2.732;2023-04-03T09:28:04;6;5;
69123;PMS5003;56232;53.384;-2.732;2023-04-03T09:30:29;5;5;
69123;PMS5003;56232;53.384;-2.732;2023-04-03T09:32:55;4;4;
69123;PMS5003;56232;53.384;-2.732;2023-04-03T09:35:23;7;6;
69123;PMS5003;56232;53.384;-2.732;2023-04-03T09:37:47;4;4;
69123;PMS5003;56232;53.384;-2.732;2023-04-03T09:42:38;3;2;
69123;PMS5003;56232;53.384;-2.732;2023-04-03T09:45:04;6;5;
69123;PMS5003;56232;53.384;-2.732;2023-04-03T09:47:29;4;3;
69123;PMS5003;56232;53.384;-2.732;2023-04-03T09:52:22;4;3;
69123;PMS5003;56232;53.384;-2.732;2023-04-03T09:54:46;5;4;
69123;PMS5003;56232;53.384;-2.732;2023-04-03T09:57:12;2;2;
69123;PMS5003;56232;53.384;-2.732;2023-04-03T09:59:40;7;5;
69123;PMS5003;56232;53.384;-2.732;2023-04-03T10:02:04;4;4;
69123;PMS5003;56232;53.384;-2.732;2023-04-03T10:06:55;5;4;
69123;PMS5003;56232;53.384;-2.732;2023-04-03T10:09:20;5;3;
69123;PMS5003;56232;53.384;-2.732;2023-04-03T10:14:15;4;4;
69123;PMS5003;56232;53.384;-2.732;2023-04-03T10:16:37;3;3;
69123;PMS5003;56232;53.384;-2.732;2023-04-03T10:19:05;7;4;
69123;PMS5003;56232;53.384;-2.732;2023-04-03T10:21:30;4;4;
69123;PMS5003;56232;53.384;-2.732;2023-04-03T10:24:01;5;5;
69123;PMS5003;56232;53.384;-2.732;2023-04-03T10:26:22;6;4;
69123;PMS5003;56232;53.384;-2.732;2023-04-03T10:28:47;4;4;
69123;PMS5003;56232;53.384;-2.732;2023-04-03T10:31:12;6;5;
69123;PMS5003;56232;53.384;-2.732;2023-04-03T10:33:39;5;5;
69123;PMS5003;56232;53.384;-2.732;2023-04-03T10:36:05;4;4;
69123;PMS5003;56232;53.384;-2.732;2023-04-03T10:38:31;5;5;
69123;PMS5003;56232;53.384;-2.732;2023-04-03T10:40:55;7;5;
69123;PMS5003;56232;53.384;-2.732;2023-04-03T10:43:21;5;3;
69123;PMS5003;56232;53.384;-2.732;2023-04-03T10:45:48;4;4;
69123;PMS5003;56232;53.384;-2.732;2023-04-03T10:48:11;5;4;
69123;PMS5003;56232;53.384;-2.732;2023-04-03T10:50:38;6;5;
69123;PMS5003;56232;53.384;-2.732;2023-04-03T10:53:03;3;3;
69123;PMS5003;56232;53.384;-2.732;2023-04-03T10:55:30;6;6;
69123;PMS5003;56232;53.384;-2.732;2023-04-03T10:57:53;4;4;
69123;PMS5003;56232;53.384;-2.732;2023-04-03T11:00:19;5;4;
69123;PMS5003;56232;53.384;-2.732;2023-04-03T11:02:45;7;7;
69123;PMS5003;56232;53.384;-2.732;2023-04-03T11:05:13;6;5;
69123;PMS5003;56232;53.384;-2.732;2023-04-03T11:07:37;6;6;
69123;PMS5003;56232;53.384;-2.732;2023-04-03T11:10:03;6;6;
69123;PMS5003;56232;53.384;-2.732;2023-04-03T11:12:28;7;6;
69123;PMS5003;56232;53.384;-2.732;2023-04-03T11:14:53;6;6;
69123;PMS5003;56232;53.384;-2.732;2023-04-03T11:17:22;6;6;
69123;PMS5003;56232;53.384;-2.732;2023-04-03T11:19:46;8;8;
69123;PMS5003;56232;53.384;-2.732;2023-04-03T11:22:11;7;4;
69123;PMS5003;56232;53.384;-2.732;2023-04-03T11:24:36;4;4;
69123;PMS5003;56232;53.384;-2.732;2023-04-03T11:27:01;6;6;
69123;PMS5003;56232;53.384;-2.732;2023-04-03T11:29:27;7;7;
69123;PMS5003;56232;53.384;-2.732;2023-04-03T11:31:58;6;6;
69123;PMS5003;56232;53.384;-2.732;2023-04-03T11:34:21;7;7;
69123;PMS5003;56232;53.384;-2.732;2023-04-03T11:36:44;6;6;
69123;PMS5003;56232;53.384;-2.732;2023-04-03T11:39:13;5;5;
69123;PMS5003;56232;53.384;-2.732;2023-04-03T11:41:35;7;7;
69123;PMS5003;56232;53.384;-2.732;2023-04-03T11:44:01;5;5;
69123;PMS5003;56232;53.384;-2.732;2023-04-03T11:48:52;5;5;
69123;PMS5003;56232;53.384;-2.732;2023-04-03T11:53:43;8;7;
69123;PMS5003;56232;53.384;-2.732;2023-04-03T11:58:34;7;7;
69123;PMS5003;56232;53.384;-2.732;2023-04-03T12:01:04;11;9;
69123;PMS5003;56232;53.384;-2.732;2023-04-03T12:05:51;7;7;
69123;PMS5003;56232;53.384;-2.732;2023-04-03T12:10:42;9;8;
69123;PMS5003;56232;53.384;-2.732;2023-04-03T12:13:13;7;6;
69123;PMS5003;56232;53.384;-2.732;2023-04-03T12:18:00;8;7;
69123;PMS5003;56232;53.384;-2.732;2023-04-03T12:27:42;9;8;
69123;PMS5003;56232;53.384;-2.732;2023-04-03T12:30:12;5;5;
69123;PMS5003;56232;53.384;-2.732;2023-04-03T12:32:40;10;10;
69123;PMS5003;56232;53.384;-2.732;2023-04-03T12:35:05;11;10;
69123;PMS5003;56232;53.384;-2.732;2023-04-03T12:37:30;12;12;
69123;PMS5003;56232;53.384;-2.732;2023-04-03T12:39:53;8;8;
69123;PMS5003;56232;53.384;-2.732;2023-04-03T12:42:19;9;9;
69123;PMS5003;56232;53.384;-2.732;2023-04-03T12:44:47;10;10;
69123;PMS5003;56232;53.384;-2.732;2023-04-03T12:47:14;8;7;
69123;PMS5003;56232;53.384;-2.732;2023-04-03T12:49:35;8;8;
69123;PMS5003;56232;53.384;-2.732;2023-04-03T12:51:58;8;7;
69123;PMS5003;56232;53.384;-2.732;2023-04-03T12:54:25;10;9;
69123;PMS5003;56232;53.384;-2.732;2023-04-03T12:56:49;10;10;
69123;PMS5003;56232;53.384;-2.732;2023-04-03T12:59:16;8;8;
69123;PMS5003;56232;53.384;-2.732;2023-04-03T13:01:40;8;7;
69123;PMS5003;56232;53.384;-2.732;2023-04-03T13:04:06;8;8;
69123;PMS5003;56232;53.384;-2.732;2023-04-03T13:06:33;8;8;
69123;PMS5003;56232;53.384;-2.732;2023-04-03T13:08:58;10;10;
69123;PMS5003;56232;53.384;-2.732;2023-04-03T13:11:23;10;10;
69123;PMS5003;56232;53.384;-2.732;2023-04-03T13:13:53;11;11;
69123;PMS5003;56232;53.384;-2.732;2023-04-03T13:16:15;12;12;
69123;PMS5003;56232;53.384;-2.732;2023-04-03T13:18:47;11;11;
69123;PMS5003;56232;53.384;-2.732;2023-04-03T13:21:06;11;11;
69123;PMS5003;56232;53.384;-2.732;2023-04-03T13:23:32;13;13;
69123;PMS5003;56232;53.384;-2.732;2023-04-03T13:25:57;11;11;
69123;PMS5003;56232;53.384;-2.732;2023-04-03T13:28:23;14;13;
69123;PMS5003;56232;53.384;-2.732;2023-04-03T13:33:20;12;11;
69123;PMS5003;56232;53.384;-2.732;2023-04-03T13:35:40;11;10;
69123;PMS5003;56232;53.384;-2.732;2023-04-03T13:38:06;10;9;
69123;PMS5003;56232;53.384;-2.732;2023-04-03T13:40:31;9;9;
69123;PMS5003;56232;53.384;-2.732;2023-04-03T13:45:24;10;9;
69123;PMS5003;56232;53.384;-2.732;2023-04-03T13:47:48;12;12;
69123;PMS5003;56232;53.384;-2.732;2023-04-03T13:50:14;9;8;
69123;PMS5003;56232;53.384;-2.732;2023-04-03T13:52:40;11;11;
69123;PMS5003;56232;53.384;-2.732;2023-04-03T13:55:20;10;10;
69123;PMS5003;56232;53.384;-2.732;2023-04-03T13:57:30;11;10;
69123;PMS5003;56232;53.384;-2.732;2023-04-03T13:59:55;11;10;
69123;PMS5003;56232;53.384;-2.732;2023-04-03T14:02:22;13;12;
69123;PMS5003;56232;53.384;-2.732;2023-04-03T14:04:49;15;13;
69123;PMS5003;56232;53.384;-2.732;2023-04-03T14:07:12;9;9;
69123;PMS5003;56232;53.384;-2.732;2023-04-03T14:09:38;9;9;
69123;PMS5003;56232;53.384;-2.732;2023-04-03T14:12:04;10;9;
69123;PMS5003;56232;53.384;-2.732;2023-04-03T14:14:29;12;11;
69123;PMS5003;56232;53.384;-2.732;2023-04-03T14:16:55;10;9;
69123;PMS5003;56232;53.384;-2.732;2023-04-03T14:19:21;11;11;
69123;PMS5003;56232;53.384;-2.732;2023-04-03T14:21:46;12;11;
69123;PMS5003;56232;53.384;-2.732;2023-04-03T14:24:11;11;10;
69123;PMS5003;56232;53.384;-2.732;2023-04-03T14:26:37;11;11;
69123;PMS5003;56232;53.384;-2.732;2023-04-03T14:29:03;10;10;
69123;PMS5003;56232;53.384;-2.732;2023-04-03T14:31:28;11;11;
69123;PMS5003;56232;53.384;-2.732;2023-04-03T14:33:54;12;12;
69123;PMS5003;56232;53.384;-2.732;2023-04-03T14:36:20;11;11;
69123;PMS5003;56232;53.384;-2.732;2023-04-03T14:38:46;10;10;
69123;PMS5003;56232;53.384;-2.732;2023-04-03T14:41:12;16;15;
69123;PMS5003;56232;53.384;-2.732;2023-04-03T14:43:37;12;12;
69123;PMS5003;56232;53.384;-2.732;2023-04-03T14:46:02;14;14;
69123;PMS5003;56232;53.384;-2.732;2023-04-03T14:48:28;16;15;
69123;PMS5003;56232;53.384;-2.732;2023-04-03T14:50:53;11;11;
69123;PMS5003;56232;53.384;-2.732;2023-04-03T14:53:20;14;14;
69123;PMS5003;56232;53.384;-2.732;2023-04-03T14:55:46;14;13;
69123;PMS5003;56232;53.384;-2.732;2023-04-03T14:58:12;10;9;
69123;PMS5003;56232;53.384;-2.732;2023-04-03T15:00:36;12;11;
69123;PMS5003;56232;53.384;-2.732;2023-04-03T15:03:02;15;14;
69123;PMS5003;56232;53.384;-2.732;2023-04-03T15:05:27;12;12;
69123;PMS5003;56232;53.384;-2.732;2023-04-03T15:07:53;11;11;
69123;PMS5003;56232;53.384;-2.732;2023-04-03T15:10:19;11;11;
69123;PMS5003;56232;53.384;-2.732;2023-04-03T15:12:44;12;11;
69123;PMS5003;56232;53.384;-2.732;2023-04-03T15:15:10;11;11;
69123;PMS5003;56232;53.384;-2.732;2023-04-03T15:17:35;11;10;
69123;PMS5003;56232;53.384;-2.732;2023-04-03T15:20:01;11;11;
69123;PMS5003;56232;53.384;-2.732;2023-04-03T15:22:26;11;11;
69123;PMS5003;56232;53.384;-2.732;2023-04-03T15:24:52;13;12;
69123;PMS5003;56232;53.384;-2.732;2023-04-03T15:27:17;10;10;
69123;PMS5003;56232;53.384;-2.732;2023-04-03T15:29:43;12;12;
69123;PMS5003;56232;53.384;-2.732;2023-04-03T15:32:09;12;11;
69123;PMS5003;56232;53.384;-2.732;2023-04-03T15:34:34;13;13;
69123;PMS5003;56232;53.384;-2.732;2023-04-03T15:37:00;13;13;
69123;PMS5003;56232;53.384;-2.732;2023-04-03T15:39:25;14;13;
69123;PMS5003;56232;53.384;-2.732;2023-04-03T15:41:51;15;12;
69123;PMS5003;56232;53.384;-2.732;2023-04-03T15:44:17;9;9;
69123;PMS5003;56232;53.384;-2.732;2023-04-03T15:46:42;8;8;
69123;PMS5003;56232;53.384;-2.732;2023-04-03T15:49:08;10;10;
69123;PMS5003;56232;53.384;-2.732;2023-04-03T15:51:33;8;8;
69123;PMS5003;56232;53.384;-2.732;2023-04-03T15:53:58;13;13;
69123;PMS5003;56232;53.384;-2.732;2023-04-03T15:56:24;11;10;
69123;PMS5003;56232;53.384;-2.732;2023-04-03T15:58:49;9;9;
69123;PMS5003;56232;53.384;-2.732;2023-04-03T16:01:15;9;9;
69123;PMS5003;56232;53.384;-2.732;2023-04-03T16:03:40;10;9;
69123;PMS5003;56232;53.384;-2.732;2023-04-03T16:06:06;9;9;
69123;PMS5003;56232;53.384;-2.732;2023-04-03T16:08:32;7;7;
69123;PMS5003;56232;53.384;-2.732;2023-04-03T16:10:57;14;14;
69123;PMS5003;56232;53.384;-2.732;2023-04-03T16:13:23;7;7;
69123;PMS5003;56232;53.384;-2.732;2023-04-03T16:15:48;10;8;
69123;PMS5003;56232;53.384;-2.732;2023-04-03T16:18:14;12;10;
69123;PMS5003;56232;53.384;-2.732;2023-04-03T16:20:39;10;9;
69123;PMS5003;56232;53.384;-2.732;2023-04-03T16:23:05;8;8;
69123;PMS5003;56232;53.384;-2.732;2023-04-03T16:25:30;13;12;
69123;PMS5003;56232;53.384;-2.732;2023-04-03T16:27:56;12;12;
69123;PMS5003;56232;53.384;-2.732;2023-04-03T16:30:22;11;10;
69123;PMS5003;56232;53.384;-2.732;2023-04-03T16:32:48;10;9;
69123;PMS5003;56232;53.384;-2.732;2023-04-03T16:35:13;8;8;
69123;PMS5003;56232;53.384;-2.732;2023-04-03T16:37:39;9;9;
69123;PMS5003;56232;53.384;-2.732;2023-04-03T16:40:05;9;9;
69123;PMS5003;56232;53.384;-2.732;2023-04-03T16:42:30;8;8;
69123;PMS5003;56232;53.384;-2.732;2023-04-03T16:44:56;10;10;
69123;PMS5003;56232;53.384;-2.732;2023-04-03T16:47:22;10;10;
69123;PMS5003;56232;53.384;-2.732;2023-04-03T16:49:48;9;9;